Pagina principale
METAR-TAF:

METAR-TAF

Aeroporti :

Horta, Azzorre, Portogallo

latitudine: 38-31N, longitudine: 028-43W, altezza: 40 m

Osservazione

Il bollettino è stato emesso 14 minuti fa, alle 17:30 UTC
Vento 9 kt da sud/sud-est
Temperature 19°C
Umidità 83%
Pressione 1017 hPa
Visibilità: 9000 m
Nubi sparse ad un'altezza di 1400 ft
Nubi sparse ad un'altezza di 3000 ft
Nuvoloso ad un'altezza di 8000 ft
pioggia debole

METAR: LPHR 181730Z 15009KT 9000 -RA SCT014 SCT030 BKN080 19/16 Q1017

Ora: 17:44 (17:44 UTC)

Previsione

Il bollettino è stato emesso 3 ore e 44 minuti fa, alle 14:00 UTC
Previsione valida dal 18 alle 15 UTC al 18 alle 24 UTC
Vento 5 kt da direzioni variabili
Visibilità 10 km o più
Nubi sparse ad un'altezza di 2000 ft

TAF: LPHR 181400Z 1815/1824 VRB05KT 9999 SCT020

Osservazioni e previsioni meteorologiche di più di 4000 aeroporti (messaggi METAR e TAF).

Le stazioni disponibili sono rappresentate dai dischi gialli e rossi sulla carta.

Puntare il mouse per vedere il nome della stazione.

Clicca sopra per visualizzare le osservazioni e previsioni meteorologiche.

Per cambiare la mappa : fare clic sui pulsanti verdi con una croce nera per ingrandire, il pulsante verde con un trattino per diminuire, o sulla freccia verde per le mappe adiacenti.


METAR-TAF: